sensor_id;sensor_type;location;lat;lon;timestamp;P1;durP1;ratioP1;P2;durP2;ratioP2
2438;SDS011;14509;47.992;7.848;2023-08-21T00:00:29;11.20;;;9.30;;
2438;SDS011;14509;47.992;7.848;2023-08-21T00:02:29;11.27;;;10.17;;
2438;SDS011;14509;47.992;7.848;2023-08-21T00:04:31;11.53;;;10.47;;
2438;SDS011;14509;47.992;7.848;2023-08-21T00:06:33;10.03;;;9.13;;
2438;SDS011;14509;47.992;7.848;2023-08-21T00:08:37;16.63;;;11.00;;
2438;SDS011;14509;47.992;7.848;2023-08-21T00:10:37;15.83;;;11.27;;
2438;SDS011;14509;47.992;7.848;2023-08-21T00:12:41;11.03;;;10.03;;
2438;SDS011;14509;47.992;7.848;2023-08-21T00:14:42;11.03;;;10.10;;
2438;SDS011;14509;47.992;7.848;2023-08-21T00:16:44;10.60;;;9.70;;
2438;SDS011;14509;47.992;7.848;2023-08-21T00:18:46;11.73;;;10.63;;
2438;SDS011;14509;47.992;7.848;2023-08-21T00:20:48;11.47;;;10.37;;
2438;SDS011;14509;47.992;7.848;2023-08-21T00:22:50;12.90;;;10.43;;
2438;SDS011;14509;47.992;7.848;2023-08-21T00:24:53;10.50;;;9.40;;
2438;SDS011;14509;47.992;7.848;2023-08-21T00:26:54;12.83;;;10.53;;
2438;SDS011;14509;47.992;7.848;2023-08-21T00:28:56;13.40;;;11.57;;
2438;SDS011;14509;47.992;7.848;2023-08-21T00:31:00;10.50;;;9.60;;
2438;SDS011;14509;47.992;7.848;2023-08-21T00:33:02;10.83;;;9.80;;
2438;SDS011;14509;47.992;7.848;2023-08-21T00:35:04;11.83;;;10.63;;
2438;SDS011;14509;47.992;7.848;2023-08-21T00:37:06;10.87;;;9.83;;
2438;SDS011;14509;47.992;7.848;2023-08-21T00:39:08;11.30;;;10.30;;
2438;SDS011;14509;47.992;7.848;2023-08-21T00:41:11;11.70;;;10.60;;
2438;SDS011;14509;47.992;7.848;2023-08-21T00:43:13;11.67;;;10.57;;
2438;SDS011;14509;47.992;7.848;2023-08-21T00:45:15;10.90;;;9.77;;
2438;SDS011;14509;47.992;7.848;2023-08-21T00:47:17;14.93;;;11.20;;
2438;SDS011;14509;47.992;7.848;2023-08-21T00:49:21;11.60;;;10.53;;
2438;SDS011;14509;47.992;7.848;2023-08-21T00:51:23;12.50;;;11.27;;
2438;SDS011;14509;47.992;7.848;2023-08-21T00:53:25;10.60;;;9.50;;
2438;SDS011;14509;47.992;7.848;2023-08-21T00:55:27;11.50;;;10.30;;
2438;SDS011;14509;47.992;7.848;2023-08-21T00:57:30;13.47;;;11.97;;
2438;SDS011;14509;47.992;7.848;2023-08-21T00:59:33;11.97;;;10.70;;
2438;SDS011;14509;47.992;7.848;2023-08-21T01:01:35;12.53;;;11.23;;
2438;SDS011;14509;47.992;7.848;2023-08-21T01:03:39;11.80;;;10.80;;
2438;SDS011;14509;47.992;7.848;2023-08-21T01:05:41;12.27;;;11.17;;
2438;SDS011;14509;47.992;7.848;2023-08-21T01:07:45;12.40;;;11.30;;
2438;SDS011;14509;47.992;7.848;2023-08-21T01:09:54;12.80;;;11.30;;
2438;SDS011;14509;47.992;7.848;2023-08-21T01:12:04;12.27;;;11.07;;
2438;SDS011;14509;47.992;7.848;2023-08-21T01:14:16;13.98;;;12.63;;
2438;SDS011;14509;47.992;7.848;2023-08-21T01:16:26;12.40;;;11.20;;
2438;SDS011;14509;47.992;7.848;2023-08-21T13:24:38;8.27;;;7.13;;
2438;SDS011;14509;47.992;7.848;2023-08-21T13:26:40;9.67;;;7.80;;
2438;SDS011;14509;47.992;7.848;2023-08-21T13:28:41;14.77;;;8.93;;
2438;SDS011;14509;47.992;7.848;2023-08-21T13:30:43;8.57;;;7.67;;
2438;SDS011;14509;47.992;7.848;2023-08-21T13:32:45;7.93;;;6.87;;
2438;SDS011;14509;47.992;7.848;2023-08-21T13:34:47;9.70;;;7.83;;
2438;SDS011;14509;47.992;7.848;2023-08-21T13:36:49;9.63;;;8.63;;
2438;SDS011;14509;47.992;7.848;2023-08-21T13:38:52;8.07;;;7.33;;
2438;SDS011;14509;47.992;7.848;2023-08-21T13:40:55;7.83;;;7.13;;
2438;SDS011;14509;47.992;7.848;2023-08-21T13:42:57;7.87;;;7.07;;
2438;SDS011;14509;47.992;7.848;2023-08-21T13:45:00;8.33;;;7.50;;
2438;SDS011;14509;47.992;7.848;2023-08-21T13:47:01;8.50;;;7.20;;
2438;SDS011;14509;47.992;7.848;2023-08-21T13:49:03;7.83;;;7.03;;
2438;SDS011;14509;47.992;7.848;2023-08-21T13:51:04;9.40;;;7.03;;
2438;SDS011;14509;47.992;7.848;2023-08-21T13:53:06;8.67;;;7.60;;
2438;SDS011;14509;47.992;7.848;2023-08-21T13:55:09;8.27;;;7.47;;
2438;SDS011;14509;47.992;7.848;2023-08-21T13:57:12;9.83;;;7.60;;
2438;SDS011;14509;47.992;7.848;2023-08-21T13:59:14;7.70;;;7.10;;
2438;SDS011;14509;47.992;7.848;2023-08-21T14:01:16;7.90;;;6.87;;
2438;SDS011;14509;47.992;7.848;2023-08-21T14:03:18;9.50;;;6.53;;
2438;SDS011;14509;47.992;7.848;2023-08-21T14:05:20;9.07;;;7.47;;
2438;SDS011;14509;47.992;7.848;2023-08-21T14:07:22;7.97;;;7.17;;
2438;SDS011;14509;47.992;7.848;2023-08-21T14:09:24;8.30;;;7.40;;
2438;SDS011;14509;47.992;7.848;2023-08-21T14:11:26;7.03;;;6.33;;
2438;SDS011;14509;47.992;7.848;2023-08-21T14:13:29;7.80;;;7.10;;
2438;SDS011;14509;47.992;7.848;2023-08-21T14:15:31;7.40;;;6.70;;
2438;SDS011;14509;47.992;7.848;2023-08-21T14:17:33;7.07;;;6.40;;
2438;SDS011;14509;47.992;7.848;2023-08-21T14:19:35;7.57;;;6.87;;
2438;SDS011;14509;47.992;7.848;2023-08-21T14:21:37;7.20;;;6.50;;
2438;SDS011;14509;47.992;7.848;2023-08-21T14:23:38;8.40;;;7.50;;
2438;SDS011;14509;47.992;7.848;2023-08-21T14:25:40;7.17;;;6.10;;
2438;SDS011;14509;47.992;7.848;2023-08-21T14:27:42;6.73;;;6.03;;
2438;SDS011;14509;47.992;7.848;2023-08-21T14:29:46;6.63;;;5.97;;
2438;SDS011;14509;47.992;7.848;2023-08-21T14:31:48;7.20;;;6.60;;
2438;SDS011;14509;47.992;7.848;2023-08-21T14:33:48;8.60;;;6.60;;
2438;SDS011;14509;47.992;7.848;2023-08-21T14:35:50;8.30;;;6.70;;
2438;SDS011;14509;47.992;7.848;2023-08-21T14:37:52;7.10;;;6.13;;
2438;SDS011;14509;47.992;7.848;2023-08-21T14:39:54;6.90;;;6.20;;
2438;SDS011;14509;47.992;7.848;2023-08-21T14:41:57;7.17;;;5.60;;
2438;SDS011;14509;47.992;7.848;2023-08-21T14:43:59;7.73;;;7.07;;
2438;SDS011;14509;47.992;7.848;2023-08-21T14:46:02;6.63;;;6.10;;
2438;SDS011;14509;47.992;7.848;2023-08-21T14:48:05;6.67;;;6.03;;
2438;SDS011;14509;47.992;7.848;2023-08-21T14:50:08;6.43;;;5.83;;
2438;SDS011;14509;47.992;7.848;2023-08-21T14:52:10;12.43;;;7.10;;
2438;SDS011;14509;47.992;7.848;2023-08-21T14:54:12;6.47;;;5.87;;
2438;SDS011;14509;47.992;7.848;2023-08-21T14:56:13;6.10;;;5.17;;
2438;SDS011;14509;47.992;7.848;2023-08-21T14:58:15;6.30;;;5.80;;
2438;SDS011;14509;47.992;7.848;2023-08-21T15:00:17;6.23;;;5.73;;
2438;SDS011;14509;47.992;7.848;2023-08-21T15:02:22;6.00;;;5.50;;
2438;SDS011;14509;47.992;7.848;2023-08-21T15:04:24;5.50;;;5.00;;
2438;SDS011;14509;47.992;7.848;2023-08-21T15:06:25;7.97;;;5.80;;
2438;SDS011;14509;47.992;7.848;2023-08-21T15:08:27;5.70;;;5.30;;
2438;SDS011;14509;47.992;7.848;2023-08-21T15:15:03;7.20;;;5.03;;
2438;SDS011;14509;47.992;7.848;2023-08-21T15:17:06;6.50;;;6.00;;
2438;SDS011;14509;47.992;7.848;2023-08-21T15:19:08;5.30;;;4.90;;
2438;SDS011;14509;47.992;7.848;2023-08-21T15:21:10;5.97;;;4.50;;
2438;SDS011;14509;47.992;7.848;2023-08-21T15:23:12;6.10;;;5.13;;
2438;SDS011;14509;47.992;7.848;2023-08-21T15:25:14;6.90;;;6.20;;
2438;SDS011;14509;47.992;7.848;2023-08-21T15:27:16;5.10;;;4.67;;
2438;SDS011;14509;47.992;7.848;2023-08-21T15:29:18;6.27;;;5.67;;
2438;SDS011;14509;47.992;7.848;2023-08-21T15:31:20;9.00;;;6.57;;
2438;SDS011;14509;47.992;7.848;2023-08-21T15:33:22;6.10;;;5.50;;
2438;SDS011;14509;47.992;7.848;2023-08-21T15:35:25;8.40;;;5.57;;
2438;SDS011;14509;47.992;7.848;2023-08-21T15:37:27;6.33;;;5.60;;
2438;SDS011;14509;47.992;7.848;2023-08-21T15:39:29;6.63;;;5.90;;
2438;SDS011;14509;47.992;7.848;2023-08-21T15:41:30;5.13;;;4.73;;
2438;SDS011;14509;47.992;7.848;2023-08-21T15:43:32;5.63;;;5.10;;
2438;SDS011;14509;47.992;7.848;2023-08-21T15:45:34;5.60;;;5.10;;
2438;SDS011;14509;47.992;7.848;2023-08-21T15:47:35;6.13;;;5.60;;
2438;SDS011;14509;47.992;7.848;2023-08-21T15:49:37;5.60;;;5.10;;
2438;SDS011;14509;47.992;7.848;2023-08-21T15:51:39;6.03;;;5.43;;
2438;SDS011;14509;47.992;7.848;2023-08-21T15:53:44;6.73;;;5.47;;
2438;SDS011;14509;47.992;7.848;2023-08-21T15:55:46;6.63;;;5.90;;
2438;SDS011;14509;47.992;7.848;2023-08-21T15:57:48;5.17;;;4.77;;
2438;SDS011;14509;47.992;7.848;2023-08-21T15:59:50;5.63;;;5.10;;
2438;SDS011;14509;47.992;7.848;2023-08-21T16:01:52;5.43;;;4.93;;
2438;SDS011;14509;47.992;7.848;2023-08-21T16:03:53;5.60;;;4.83;;
2438;SDS011;14509;47.992;7.848;2023-08-21T16:05:55;5.43;;;5.03;;
2438;SDS011;14509;47.992;7.848;2023-08-21T16:07:58;4.60;;;4.17;;
2438;SDS011;14509;47.992;7.848;2023-08-21T16:10:00;6.57;;;5.97;;
2438;SDS011;14509;47.992;7.848;2023-08-21T16:12:04;6.70;;;5.37;;
2438;SDS011;14509;47.992;7.848;2023-08-21T16:14:06;5.20;;;4.70;;
2438;SDS011;14509;47.992;7.848;2023-08-21T16:16:08;5.23;;;4.70;;
2438;SDS011;14509;47.992;7.848;2023-08-21T16:18:10;5.10;;;4.60;;
2438;SDS011;14509;47.992;7.848;2023-08-21T16:20:12;5.20;;;4.80;;
2438;SDS011;14509;47.992;7.848;2023-08-21T16:22:15;8.07;;;6.03;;
2438;SDS011;14509;47.992;7.848;2023-08-21T16:24:19;6.43;;;5.60;;
2438;SDS011;14509;47.992;7.848;2023-08-21T16:26:21;5.80;;;5.40;;
2438;SDS011;14509;47.992;7.848;2023-08-21T16:28:24;6.03;;;5.10;;
2438;SDS011;14509;47.992;7.848;2023-08-21T16:30:26;4.17;;;3.87;;
2438;SDS011;14509;47.992;7.848;2023-08-21T16:32:28;5.80;;;5.30;;
2438;SDS011;14509;47.992;7.848;2023-08-21T16:34:29;9.10;;;5.70;;
2438;SDS011;14509;47.992;7.848;2023-08-21T16:36:30;5.97;;;5.37;;
2438;SDS011;14509;47.992;7.848;2023-08-21T16:38:32;5.50;;;5.00;;
2438;SDS011;14509;47.992;7.848;2023-08-21T16:40:36;6.47;;;5.30;;
2438;SDS011;14509;47.992;7.848;2023-08-21T16:42:37;7.27;;;6.10;;
2438;SDS011;14509;47.992;7.848;2023-08-21T16:44:39;5.83;;;5.27;;
2438;SDS011;14509;47.992;7.848;2023-08-21T16:46:41;8.30;;;5.10;;
2438;SDS011;14509;47.992;7.848;2023-08-21T16:48:43;5.30;;;4.73;;
2438;SDS011;14509;47.992;7.848;2023-08-21T16:50:45;5.80;;;5.30;;
2438;SDS011;14509;47.992;7.848;2023-08-21T16:52:47;5.33;;;4.83;;
2438;SDS011;14509;47.992;7.848;2023-08-21T16:54:49;6.00;;;5.50;;
2438;SDS011;14509;47.992;7.848;2023-08-21T16:56:52;6.80;;;5.80;;
2438;SDS011;14509;47.992;7.848;2023-08-21T16:58:54;5.70;;;5.20;;
2438;SDS011;14509;47.992;7.848;2023-08-21T17:00:56;5.13;;;4.73;;
2438;SDS011;14509;47.992;7.848;2023-08-21T17:02:58;6.50;;;5.17;;
2438;SDS011;14509;47.992;7.848;2023-08-21T17:05:00;4.93;;;4.47;;
2438;SDS011;14509;47.992;7.848;2023-08-21T17:07:02;5.40;;;4.90;;
2438;SDS011;14509;47.992;7.848;2023-08-21T17:09:04;6.50;;;5.00;;
2438;SDS011;14509;47.992;7.848;2023-08-21T17:11:06;6.10;;;5.50;;
2438;SDS011;14509;47.992;7.848;2023-08-21T17:13:09;6.57;;;5.00;;
2438;SDS011;14509;47.992;7.848;2023-08-21T17:15:11;7.83;;;5.37;;
2438;SDS011;14509;47.992;7.848;2023-08-21T17:17:15;4.90;;;4.50;;
2438;SDS011;14509;47.992;7.848;2023-08-21T17:19:17;6.23;;;5.63;;
2438;SDS011;14509;47.992;7.848;2023-08-21T17:21:19;5.63;;;5.13;;
2438;SDS011;14509;47.992;7.848;2023-08-21T17:23:19;5.43;;;5.00;;
2438;SDS011;14509;47.992;7.848;2023-08-21T17:25:22;8.87;;;5.70;;
2438;SDS011;14509;47.992;7.848;2023-08-21T17:27:24;6.43;;;5.40;;
2438;SDS011;14509;47.992;7.848;2023-08-21T17:29:28;5.00;;;4.60;;
2438;SDS011;14509;47.992;7.848;2023-08-21T17:31:30;6.60;;;4.77;;
2438;SDS011;14509;47.992;7.848;2023-08-21T17:33:32;4.50;;;4.10;;
2438;SDS011;14509;47.992;7.848;2023-08-21T17:35:34;5.07;;;4.50;;
2438;SDS011;14509;47.992;7.848;2023-08-21T17:37:36;5.50;;;5.00;;
2438;SDS011;14509;47.992;7.848;2023-08-21T17:39:37;4.37;;;4.00;;
2438;SDS011;14509;47.992;7.848;2023-08-21T17:41:39;5.00;;;4.20;;
2438;SDS011;14509;47.992;7.848;2023-08-21T17:43:42;7.10;;;5.37;;
2438;SDS011;14509;47.992;7.848;2023-08-21T17:45:46;5.00;;;4.60;;
2438;SDS011;14509;47.992;7.848;2023-08-21T17:47:47;4.97;;;4.33;;
2438;SDS011;14509;47.992;7.848;2023-08-21T17:49:50;6.00;;;4.90;;
2438;SDS011;14509;47.992;7.848;2023-08-21T17:51:51;5.07;;;4.60;;
2438;SDS011;14509;47.992;7.848;2023-08-21T17:53:53;4.90;;;4.50;;
2438;SDS011;14509;47.992;7.848;2023-08-21T17:55:56;5.10;;;4.70;;
2438;SDS011;14509;47.992;7.848;2023-08-21T17:57:58;5.50;;;4.93;;
2438;SDS011;14509;47.992;7.848;2023-08-21T18:00:00;5.80;;;5.30;;
2438;SDS011;14509;47.992;7.848;2023-08-21T18:02:11;5.20;;;4.47;;
2438;SDS011;14509;47.992;7.848;2023-08-21T18:04:13;6.90;;;4.80;;
2438;SDS011;14509;47.992;7.848;2023-08-21T18:06:14;6.47;;;4.80;;
2438;SDS011;14509;47.992;7.848;2023-08-21T18:08:18;7.20;;;5.73;;
2438;SDS011;14509;47.992;7.848;2023-08-21T18:10:20;10.00;;;5.30;;
2438;SDS011;14509;47.992;7.848;2023-08-21T18:12:22;5.90;;;5.30;;
2438;SDS011;14509;47.992;7.848;2023-08-21T18:14:24;6.10;;;5.10;;
2438;SDS011;14509;47.992;7.848;2023-08-21T18:16:26;6.00;;;5.40;;
2438;SDS011;14509;47.992;7.848;2023-08-21T18:18:29;6.83;;;6.23;;
2438;SDS011;14509;47.992;7.848;2023-08-21T18:22:55;7.13;;;5.33;;
2438;SDS011;14509;47.992;7.848;2023-08-21T18:24:55;10.50;;;6.27;;
2438;SDS011;14509;47.992;7.848;2023-08-21T18:26:57;7.87;;;6.07;;
2438;SDS011;14509;47.992;7.848;2023-08-21T18:28:59;5.90;;;5.40;;
2438;SDS011;14509;47.992;7.848;2023-08-21T18:31:02;7.33;;;5.73;;
2438;SDS011;14509;47.992;7.848;2023-08-21T18:33:04;6.03;;;5.43;;
2438;SDS011;14509;47.992;7.848;2023-08-21T18:35:07;5.70;;;4.90;;
2438;SDS011;14509;47.992;7.848;2023-08-21T18:37:10;13.60;;;5.77;;
2438;SDS011;14509;47.992;7.848;2023-08-21T18:39:12;7.23;;;5.30;;
2438;SDS011;14509;47.992;7.848;2023-08-21T18:41:14;6.00;;;5.03;;
2438;SDS011;14509;47.992;7.848;2023-08-21T18:43:17;6.37;;;5.70;;
2438;SDS011;14509;47.992;7.848;2023-08-21T18:45:19;7.30;;;5.60;;
2438;SDS011;14509;47.992;7.848;2023-08-21T18:47:20;5.63;;;5.13;;
2438;SDS011;14509;47.992;7.848;2023-08-21T18:49:24;6.53;;;5.60;;
2438;SDS011;14509;47.992;7.848;2023-08-21T18:51:27;8.83;;;7.40;;
2438;SDS011;14509;47.992;7.848;2023-08-21T18:53:28;6.07;;;5.43;;
2438;SDS011;14509;47.992;7.848;2023-08-21T18:55:34;7.60;;;5.83;;
2438;SDS011;14509;47.992;7.848;2023-08-21T18:57:37;10.27;;;6.17;;
2438;SDS011;14509;47.992;7.848;2023-08-21T18:59:39;8.83;;;6.90;;
2438;SDS011;14509;47.992;7.848;2023-08-21T19:01:40;7.07;;;5.60;;
2438;SDS011;14509;47.992;7.848;2023-08-21T19:03:42;5.37;;;4.77;;
2438;SDS011;14509;47.992;7.848;2023-08-21T19:05:44;6.20;;;5.50;;
2438;SDS011;14509;47.992;7.848;2023-08-21T19:07:47;5.17;;;4.67;;
2438;SDS011;14509;47.992;7.848;2023-08-21T19:09:49;8.70;;;6.20;;
2438;SDS011;14509;47.992;7.848;2023-08-21T19:11:51;6.37;;;5.77;;
2438;SDS011;14509;47.992;7.848;2023-08-21T19:13:53;7.07;;;6.23;;
2438;SDS011;14509;47.992;7.848;2023-08-21T19:15:55;6.20;;;5.60;;
2438;SDS011;14509;47.992;7.848;2023-08-21T19:17:57;7.20;;;5.53;;
2438;SDS011;14509;47.992;7.848;2023-08-21T19:20:00;5.47;;;4.97;;
2438;SDS011;14509;47.992;7.848;2023-08-21T19:22:04;7.37;;;6.57;;
2438;SDS011;14509;47.992;7.848;2023-08-21T19:24:07;7.00;;;6.40;;
2438;SDS011;14509;47.992;7.848;2023-08-21T19:26:09;8.50;;;5.70;;
2438;SDS011;14509;47.992;7.848;2023-08-21T19:28:14;7.63;;;5.83;;
2438;SDS011;14509;47.992;7.848;2023-08-21T19:30:16;8.53;;;5.40;;
2438;SDS011;14509;47.992;7.848;2023-08-21T19:32:18;7.10;;;5.77;;
2438;SDS011;14509;47.992;7.848;2023-08-21T19:34:20;6.47;;;5.80;;
2438;SDS011;14509;47.992;7.848;2023-08-21T19:36:23;8.47;;;7.10;;
2438;SDS011;14509;47.992;7.848;2023-08-21T19:38:25;7.73;;;5.37;;
2438;SDS011;14509;47.992;7.848;2023-08-21T19:40:28;7.30;;;6.17;;
2438;SDS011;14509;47.992;7.848;2023-08-21T19:42:36;7.33;;;6.20;;
2438;SDS011;14509;47.992;7.848;2023-08-21T19:44:38;6.50;;;5.90;;
2438;SDS011;14509;47.992;7.848;2023-08-21T19:46:40;6.67;;;6.07;;
2438;SDS011;14509;47.992;7.848;2023-08-21T19:48:41;8.20;;;7.40;;
2438;SDS011;14509;47.992;7.848;2023-08-21T19:50:42;9.30;;;8.30;;
2438;SDS011;14509;47.992;7.848;2023-08-21T19:52:44;7.60;;;6.53;;
2438;SDS011;14509;47.992;7.848;2023-08-21T19:54:46;7.83;;;7.03;;
2438;SDS011;14509;47.992;7.848;2023-08-21T19:56:50;9.17;;;7.07;;
2438;SDS011;14509;47.992;7.848;2023-08-21T19:58:51;7.30;;;6.60;;
2438;SDS011;14509;47.992;7.848;2023-08-21T20:00:53;11.13;;;6.60;;
2438;SDS011;14509;47.992;7.848;2023-08-21T20:02:55;6.27;;;5.67;;
2438;SDS011;14509;47.992;7.848;2023-08-21T20:04:59;7.60;;;6.13;;
2438;SDS011;14509;47.992;7.848;2023-08-21T20:07:01;10.90;;;7.30;;
2438;SDS011;14509;47.992;7.848;2023-08-21T20:09:04;8.50;;;7.13;;
2438;SDS011;14509;47.992;7.848;2023-08-21T20:11:06;9.93;;;6.47;;
2438;SDS011;14509;47.992;7.848;2023-08-21T20:13:11;7.40;;;6.70;;
2438;SDS011;14509;47.992;7.848;2023-08-21T20:15:13;11.73;;;6.63;;
2438;SDS011;14509;47.992;7.848;2023-08-21T20:17:15;10.23;;;7.20;;
2438;SDS011;14509;47.992;7.848;2023-08-21T20:19:17;7.43;;;6.73;;
2438;SDS011;14509;47.992;7.848;2023-08-21T20:21:19;7.33;;;6.63;;
2438;SDS011;14509;47.992;7.848;2023-08-21T20:23:21;10.33;;;7.70;;
2438;SDS011;14509;47.992;7.848;2023-08-21T20:25:23;8.30;;;7.20;;
2438;SDS011;14509;47.992;7.848;2023-08-21T20:27:25;9.53;;;7.80;;
2438;SDS011;14509;47.992;7.848;2023-08-21T20:29:28;7.90;;;6.77;;
2438;SDS011;14509;47.992;7.848;2023-08-21T20:31:31;7.47;;;6.77;;
2438;SDS011;14509;47.992;7.848;2023-08-21T20:33:33;8.57;;;7.77;;
2438;SDS011;14509;47.992;7.848;2023-08-21T20:35:35;14.00;;;8.30;;
2438;SDS011;14509;47.992;7.848;2023-08-21T20:37:37;8.70;;;6.77;;
2438;SDS011;14509;47.992;7.848;2023-08-21T20:39:39;7.87;;;6.73;;
2438;SDS011;14509;47.992;7.848;2023-08-21T20:41:41;13.20;;;10.27;;
2438;SDS011;14509;47.992;7.848;2023-08-21T20:43:43;8.50;;;7.70;;
2438;SDS011;14509;47.992;7.848;2023-08-21T20:45:46;7.93;;;6.83;;
2438;SDS011;14509;47.992;7.848;2023-08-21T20:47:48;8.77;;;6.77;;
2438;SDS011;14509;47.992;7.848;2023-08-21T20:49:50;9.50;;;7.17;;
2438;SDS011;14509;47.992;7.848;2023-08-21T20:51:52;10.60;;;6.63;;
2438;SDS011;14509;47.992;7.848;2023-08-21T20:53:54;8.17;;;6.57;;
2438;SDS011;14509;47.992;7.848;2023-08-21T20:55:55;9.60;;;8.00;;
2438;SDS011;14509;47.992;7.848;2023-08-21T20:57:59;12.40;;;7.20;;
2438;SDS011;14509;47.992;7.848;2023-08-21T21:00:03;11.47;;;7.10;;
2438;SDS011;14509;47.992;7.848;2023-08-21T21:02:09;7.80;;;7.00;;
2438;SDS011;14509;47.992;7.848;2023-08-21T21:04:11;7.17;;;6.57;;
2438;SDS011;14509;47.992;7.848;2023-08-21T21:06:13;8.03;;;7.43;;
2438;SDS011;14509;47.992;7.848;2023-08-21T21:08:16;8.07;;;7.07;;
2438;SDS011;14509;47.992;7.848;2023-08-21T21:10:17;7.50;;;6.80;;
2438;SDS011;14509;47.992;7.848;2023-08-21T21:12:19;7.63;;;6.90;;
2438;SDS011;14509;47.992;7.848;2023-08-21T21:14:21;8.93;;;8.03;;
2438;SDS011;14509;47.992;7.848;2023-08-21T21:16:23;8.13;;;7.43;;
2438;SDS011;14509;47.992;7.848;2023-08-21T21:18:28;8.47;;;7.60;;
2438;SDS011;14509;47.992;7.848;2023-08-21T21:20:30;11.47;;;7.60;;
2438;SDS011;14509;47.992;7.848;2023-08-21T21:22:32;8.30;;;7.53;;
2438;SDS011;14509;47.992;7.848;2023-08-21T21:24:34;11.70;;;7.30;;
2438;SDS011;14509;47.992;7.848;2023-08-21T21:26:37;8.27;;;7.53;;
2438;SDS011;14509;47.992;7.848;2023-08-21T21:28:40;8.37;;;7.53;;
2438;SDS011;14509;47.992;7.848;2023-08-21T21:30:42;7.73;;;7.13;;
2438;SDS011;14509;47.992;7.848;2023-08-21T21:32:44;9.53;;;6.67;;
2438;SDS011;14509;47.992;7.848;2023-08-21T21:34:49;8.70;;;7.17;;
2438;SDS011;14509;47.992;7.848;2023-08-21T21:36:51;9.63;;;7.50;;
2438;SDS011;14509;47.992;7.848;2023-08-21T21:38:52;11.17;;;7.93;;
2438;SDS011;14509;47.992;7.848;2023-08-21T21:40:54;7.80;;;7.00;;
2438;SDS011;14509;47.992;7.848;2023-08-21T21:42:56;8.10;;;7.30;;
2438;SDS011;14509;47.992;7.848;2023-08-21T21:44:58;9.00;;;8.10;;
2438;SDS011;14509;47.992;7.848;2023-08-21T21:46:59;8.53;;;7.73;;
2438;SDS011;14509;47.992;7.848;2023-08-21T21:49:01;10.23;;;7.63;;
2438;SDS011;14509;47.992;7.848;2023-08-21T21:51:04;7.20;;;6.60;;
2438;SDS011;14509;47.992;7.848;2023-08-21T21:53:06;9.60;;;8.67;;
2438;SDS011;14509;47.992;7.848;2023-08-21T21:55:09;8.77;;;7.87;;
2438;SDS011;14509;47.992;7.848;2023-08-21T21:57:10;7.93;;;7.13;;
2438;SDS011;14509;47.992;7.848;2023-08-21T21:59:12;12.33;;;8.47;;
2438;SDS011;14509;47.992;7.848;2023-08-21T22:01:15;7.90;;;7.20;;
2438;SDS011;14509;47.992;7.848;2023-08-21T22:03:18;8.00;;;7.27;;
2438;SDS011;14509;47.992;7.848;2023-08-21T22:05:18;9.07;;;7.90;;
2438;SDS011;14509;47.992;7.848;2023-08-21T22:07:22;12.50;;;7.77;;
2438;SDS011;14509;47.992;7.848;2023-08-21T22:09:23;7.23;;;6.53;;
2438;SDS011;14509;47.992;7.848;2023-08-21T22:11:25;8.63;;;7.70;;
2438;SDS011;14509;47.992;7.848;2023-08-21T22:13:27;8.40;;;7.47;;
2438;SDS011;14509;47.992;7.848;2023-08-21T22:15:29;11.70;;;7.67;;
2438;SDS011;14509;47.992;7.848;2023-08-21T22:17:31;7.70;;;6.73;;
2438;SDS011;14509;47.992;7.848;2023-08-21T22:19:34;10.47;;;8.17;;
2438;SDS011;14509;47.992;7.848;2023-08-21T22:21:35;11.90;;;7.27;;
2438;SDS011;14509;47.992;7.848;2023-08-21T22:23:39;9.70;;;7.83;;
2438;SDS011;14509;47.992;7.848;2023-08-21T22:25:40;9.63;;;7.00;;
2438;SDS011;14509;47.992;7.848;2023-08-21T22:27:42;15.20;;;8.50;;
2438;SDS011;14509;47.992;7.848;2023-08-21T22:29:45;8.87;;;7.97;;
2438;SDS011;14509;47.992;7.848;2023-08-21T22:31:47;11.33;;;7.47;;
2438;SDS011;14509;47.992;7.848;2023-08-21T22:33:49;8.57;;;7.77;;
2438;SDS011;14509;47.992;7.848;2023-08-21T22:35:51;7.80;;;7.00;;
2438;SDS011;14509;47.992;7.848;2023-08-21T22:37:53;8.60;;;7.43;;
2438;SDS011;14509;47.992;7.848;2023-08-21T22:39:56;8.30;;;7.60;;
2438;SDS011;14509;47.992;7.848;2023-08-21T22:41:58;7.50;;;6.70;;
2438;SDS011;14509;47.992;7.848;2023-08-21T22:44:00;8.97;;;8.17;;
2438;SDS011;14509;47.992;7.848;2023-08-21T22:46:03;8.97;;;8.17;;
2438;SDS011;14509;47.992;7.848;2023-08-21T22:48:05;8.17;;;7.50;;
2438;SDS011;14509;47.992;7.848;2023-08-21T22:50:07;10.07;;;8.10;;
2438;SDS011;14509;47.992;7.848;2023-08-21T22:52:09;8.30;;;7.50;;
2438;SDS011;14509;47.992;7.848;2023-08-21T22:54:11;8.07;;;7.30;;
2438;SDS011;14509;47.992;7.848;2023-08-21T22:56:14;8.83;;;7.93;;
2438;SDS011;14509;47.992;7.848;2023-08-21T22:58:15;8.37;;;7.10;;
2438;SDS011;14509;47.992;7.848;2023-08-21T23:00:17;8.67;;;7.77;;
2438;SDS011;14509;47.992;7.848;2023-08-21T23:02:19;7.93;;;7.20;;
2438;SDS011;14509;47.992;7.848;2023-08-21T23:04:21;11.43;;;7.50;;
2438;SDS011;14509;47.992;7.848;2023-08-21T23:06:23;10.20;;;7.10;;
2438;SDS011;14509;47.992;7.848;2023-08-21T23:08:25;8.00;;;7.30;;
2438;SDS011;14509;47.992;7.848;2023-08-21T23:10:27;8.10;;;7.33;;
2438;SDS011;14509;47.992;7.848;2023-08-21T23:12:31;7.67;;;6.97;;
2438;SDS011;14509;47.992;7.848;2023-08-21T23:14:34;7.70;;;6.70;;
2438;SDS011;14509;47.992;7.848;2023-08-21T23:16:35;7.17;;;6.47;;
2438;SDS011;14509;47.992;7.848;2023-08-21T23:18:37;8.00;;;7.20;;
2438;SDS011;14509;47.992;7.848;2023-08-21T23:20:38;9.13;;;8.30;;
2438;SDS011;14509;47.992;7.848;2023-08-21T23:22:40;8.73;;;7.53;;
2438;SDS011;14509;47.992;7.848;2023-08-21T23:24:42;8.07;;;7.27;;
2438;SDS011;14509;47.992;7.848;2023-08-21T23:26:44;8.50;;;7.17;;
2438;SDS011;14509;47.992;7.848;2023-08-21T23:28:47;9.17;;;8.27;;
2438;SDS011;14509;47.992;7.848;2023-08-21T23:30:50;9.23;;;7.47;;
2438;SDS011;14509;47.992;7.848;2023-08-21T23:32:52;7.47;;;6.87;;
2438;SDS011;14509;47.992;7.848;2023-08-21T23:34:54;9.20;;;7.13;;
2438;SDS011;14509;47.992;7.848;2023-08-21T23:36:56;8.73;;;7.20;;
2438;SDS011;14509;47.992;7.848;2023-08-21T23:38:57;9.60;;;8.33;;
2438;SDS011;14509;47.992;7.848;2023-08-21T23:41:00;10.10;;;8.67;;
2438;SDS011;14509;47.992;7.848;2023-08-21T23:43:04;9.77;;;8.90;;
2438;SDS011;14509;47.992;7.848;2023-08-21T23:45:07;8.43;;;7.73;;
2438;SDS011;14509;47.992;7.848;2023-08-21T23:47:10;8.50;;;7.60;;
2438;SDS011;14509;47.992;7.848;2023-08-21T23:49:12;8.33;;;7.50;;
2438;SDS011;14509;47.992;7.848;2023-08-21T23:51:14;8.37;;;7.67;;
2438;SDS011;14509;47.992;7.848;2023-08-21T23:53:15;12.83;;;7.63;;
2438;SDS011;14509;47.992;7.848;2023-08-21T23:55:17;9.50;;;8.60;;
2438;SDS011;14509;47.992;7.848;2023-08-21T23:57:19;10.37;;;8.03;;
2438;SDS011;14509;47.992;7.848;2023-08-21T23:59:21;7.87;;;7.13;;
